Time;durP1;ratioP1;P1;durP2;ratioP2;P2;SDS_P1;SDS_P2;PMS_P1;PMS_P2;Temp;Humidity;BMP_temperature;BMP_pressure;BME280_temperature;BME280_humidity;BME280_pressure;Samples;Min_cycle;Max_cycle;Signal;HPM_P1;HPM_P2
2022/03/28 00:00:09;;;;;;;34.58;19.17;;;;;;;14.99;40.84;101979.66;5096558;28;20075;-61
2022/03/28 00:02:40;;;;;;;31.83;19.25;;;;;;;14.83;41.20;101975.56;5097667;28;20059;-61
2022/03/28 00:05:08;;;;;;;36.25;20.38;;;;;;;15.01;40.74;101974.63;5097595;28;20067;-62
2022/03/28 00:07:36;;;;;;;34.42;20.13;;;;;;;14.94;40.79;101968.66;5097518;28;20055;-61
2022/03/28 00:10:04;;;;;;;35.17;19.33;;;;;;;14.87;41.08;101968.28;5097414;28;20055;-61
2022/03/28 00:12:32;;;;;;;36.03;20.40;;;;;;;14.75;41.49;101968.78;5097585;28;20051;-62
2022/03/28 00:15:01;;;;;;;34.13;19.15;;;;;;;15.03;40.66;101967.59;5081285;28;20056;-61
2022/03/28 00:17:31;;;;;;;39.47;19.50;;;;;;;14.94;40.84;101960.34;5076890;28;20048;-61
2022/03/28 00:20:00;;;;;;;33.83;19.45;;;;;;;14.54;41.77;101956.50;5075852;28;20123;-61
2022/03/28 00:22:28;;;;;;;32.88;18.92;;;;;;;14.57;41.59;101950.34;5077006;28;20049;-62
2022/03/28 00:24:56;;;;;;;36.65;19.75;;;;;;;14.23;42.34;101961.84;5077077;28;20056;-58
2022/03/28 00:27:23;;;;;;;37.72;20.52;;;;;;;13.98;42.77;101965.09;5059369;28;20059;-60
2022/03/28 00:29:50;;;;;;;34.50;20.83;;;;;;;14.19;42.54;101957.22;5072254;28;20056;-58
2022/03/28 00:32:18;;;;;;;35.88;20.38;;;;;;;14.22;42.62;101959.38;5038552;28;20079;-58
2022/03/28 00:34:45;;;;;;;38.25;19.35;;;;;;;14.47;42.23;101950.56;5057724;28;20052;-56
2022/03/28 00:37:12;;;;;;;34.92;20.73;;;;;;;14.29;42.40;101946.78;5059337;28;20056;-62
2022/03/28 00:39:40;;;;;;;43.70;20.75;;;;;;;14.25;42.67;101948.50;5076789;28;20495;-61
2022/03/28 00:42:08;;;;;;;41.30;21.70;;;;;;;14.34;42.48;101945.84;5088516;28;20059;-61
2022/03/28 00:44:36;;;;;;;38.80;19.50;;;;;;;14.31;42.47;101946.47;5096780;28;20071;-62
2022/03/28 00:47:04;;;;;;;35.15;19.77;;;;;;;14.09;42.99;101946.31;5096886;28;20059;-62
2022/03/28 00:49:31;;;;;;;34.25;19.08;;;;;;;14.32;42.47;101940.63;5095996;28;20404;-61
2022/03/28 00:51:59;;;;;;;35.85;19.88;;;;;;;14.19;42.95;101944.16;5096679;28;20387;-62
2022/03/28 00:54:27;;;;;;;36.35;19.63;;;;;;;14.28;42.84;101934.03;5096749;28;20056;-63
2022/03/28 00:56:55;;;;;;;35.13;20.17;;;;;;;14.06;43.11;101941.41;5096708;28;20051;-62
2022/03/28 00:59:22;;;;;;;41.63;21.10;;;;;;;13.93;43.65;101945.00;5095212;28;20400;-62
2022/03/28 01:01:49;;;;;;;33.80;19.42;;;;;;;13.90;43.75;101934.50;5096474;28;20055;-62
2022/03/28 01:04:17;;;;;;;40.35;21.38;;;;;;;13.98;43.65;101939.34;5094978;28;20063;-62
2022/03/28 01:06:45;;;;;;;35.03;20.35;;;;;;;14.10;43.25;101929.41;5095380;28;20052;-63
2022/03/28 01:09:12;;;;;;;37.78;20.13;;;;;;;13.87;43.63;101933.19;5096311;28;20059;-58
2022/03/28 01:11:42;;;;;;;32.22;20.20;;;;;;;13.94;43.64;101925.28;5096173;28;20055;-58
2022/03/28 01:14:09;;;;;;;42.75;21.50;;;;;;;14.05;43.43;101923.94;5085623;28;20055;-58
2022/03/28 01:18:05;;;;;;;34.60;19.70;;;;;;;14.00;43.76;101917.72;5074568;28;20522;-60
2022/03/28 01:19:24;;;;;;;34.72;20.50;;;;;;;14.08;43.57;101915.03;5075548;28;20053;-58
2022/03/28 01:21:52;;;;;;;37.58;19.77;;;;;;;13.95;43.63;101926.91;5074308;28;20048;-60
2022/03/28 01:24:19;;;;;;;44.25;20.73;;;;;;;13.36;45.17;101919.44;5075996;28;20526;-60
2022/03/28 01:26:48;;;;;;;39.70;21.25;;;;;;;13.22;45.85;101917.72;5075904;28;20059;-59
2022/03/28 01:29:17;;;;;;;35.40;21.05;;;;;;;13.38;45.61;101914.41;5075076;28;20049;-61
2022/03/28 01:31:44;;;;;;;36.47;19.90;;;;;;;13.53;45.33;101919.69;5075211;28;20055;-58
2022/03/28 01:34:19;;;;;;;37.35;20.42;;;;;;;13.45;45.50;101909.31;5075207;28;20048;-58
2022/03/28 01:36:47;;;;;;;34.95;20.88;;;;;;;13.34;45.89;101902.31;5075411;28;20055;-58
2022/03/28 01:39:15;;;;;;;37.42;20.95;;;;;;;13.55;45.58;101909.13;5075175;28;20055;-58
2022/03/28 01:41:44;;;;;;;37.42;20.75;;;;;;;13.39;46.12;101901.38;5085429;28;20044;-58
2022/03/28 01:44:12;;;;;;;36.03;20.17;;;;;;;13.49;45.93;101902.03;5095833;28;20542;-60
2022/03/28 01:46:46;;;;;;;40.00;19.35;;;;;;;13.69;45.50;101902.78;5095680;28;20043;-55
2022/03/28 01:49:18;;;;;;;37.78;21.05;;;;;;;13.72;45.57;101896.66;5085510;28;20047;-60
2022/03/28 01:51:47;;;;;;;34.13;19.75;;;;;;;13.51;45.91;101894.25;5075320;28;20057;-60
2022/03/28 01:54:15;;;;;;;36.80;20.85;;;;;;;13.65;45.70;101893.47;5075378;28;20044;-57
2022/03/28 01:56:42;;;;;;;33.83;19.92;;;;;;;13.80;46.00;101898.69;5057900;28;20053;-60
2022/03/28 01:59:10;;;;;;;35.08;19.80;;;;;;;13.63;46.06;101902.06;5075062;28;20052;-56
2022/03/28 02:01:39;;;;;;;35.53;20.30;;;;;;;13.38;46.80;101899.75;5074079;28;20502;-58
2022/03/28 02:04:07;;;;;;;31.98;20.05;;;;;;;13.63;46.30;101899.31;5074888;28;20040;-57
2022/03/28 02:06:35;;;;;;;36.50;21.40;;;;;;;13.11;47.80;101885.84;5073208;28;20075;-57
2022/03/28 02:09:03;;;;;;;40.13;20.30;;;;;;;13.04;47.98;101888.97;5075092;28;20044;-60
2022/03/28 02:11:30;;;;;;;39.63;21.02;;;;;;;13.21;47.90;101892.03;5075021;28;20049;-56
2022/03/28 02:13:58;;;;;;;44.13;21.55;;;;;;;13.40;47.29;101894.75;5075024;28;20044;-56
2022/03/28 02:16:25;;;;;;;39.10;20.73;;;;;;;13.41;47.49;101885.28;5075234;28;20048;-58
2022/03/28 02:18:52;;;;;;;34.90;19.20;;;;;;;13.51;47.31;101885.94;5073327;28;20059;-59
2022/03/28 02:21:20;;;;;;;35.03;21.02;;;;;;;13.65;46.72;101887.91;5075183;28;20400;-59
2022/03/28 02:23:47;;;;;;;41.33;21.63;;;;;;;13.48;47.37;101892.09;5074658;28;20155;-59
2022/03/28 02:26:14;;;;;;;35.85;19.75;;;;;;;13.13;48.33;101883.56;5074905;28;20053;-59
2022/03/28 02:28:42;;;;;;;41.78;20.67;;;;;;;13.08;48.91;101889.19;5052991;28;20045;-56
2022/03/28 02:31:10;;;;;;;36.72;21.05;;;;;;;13.29;48.34;101885.78;5054742;28;20056;-57
2022/03/28 02:33:38;;;;;;;37.22;19.70;;;;;;;13.40;47.91;101887.25;5054765;28;20051;-58
2022/03/28 02:36:05;;;;;;;37.25;20.58;;;;;;;13.22;48.61;101881.75;5045247;28;20515;-59
2022/03/28 02:38:33;;;;;;;33.55;20.98;;;;;;;13.26;48.56;101886.41;5054673;28;20048;-58
2022/03/28 02:41:01;;;;;;;35.13;20.65;;;;;;;13.25;48.77;101875.66;5065090;28;20404;-57
2022/03/28 02:43:29;;;;;;;36.00;20.23;;;;;;;12.97;49.53;101888.50;5099123;28;20514;-58
2022/03/28 02:45:56;;;;;;;39.67;21.00;;;;;;;13.02;49.72;101880.16;5098930;28;20504;-58
2022/03/28 02:48:23;;;;;;;38.65;19.75;;;;;;;13.07;49.61;101876.50;5098905;28;20063;-61
2022/03/28 02:50:51;;;;;;;37.97;20.10;;;;;;;13.11;49.57;101870.03;5098734;28;20040;-62
2022/03/28 02:53:19;;;;;;;39.15;20.27;;;;;;;13.08;49.81;101861.53;5098967;28;20040;-62
2022/03/28 02:55:47;;;;;;;37.70;20.80;;;;;;;13.17;49.79;101860.53;5098584;28;20083;-62
2022/03/28 02:58:14;;;;;;;35.10;19.80;;;;;;;12.90;50.65;101860.41;5098651;28;20063;-60
2022/03/28 03:00:42;;;;;;;33.40;20.95;;;;;;;12.99;50.62;101864.13;5097534;28;20059;-59
2022/03/28 03:03:09;;;;;;;38.53;20.88;;;;;;;12.64;51.81;101852.81;5098791;28;20059;-58
2022/03/28 03:05:37;;;;;;;36.72;20.05;;;;;;;12.78;51.52;101865.56;5080954;28;20044;-61
2022/03/28 03:08:06;;;;;;;36.30;20.88;;;;;;;12.74;51.70;101852.66;5098790;28;20048;-57
2022/03/28 03:10:33;;;;;;;42.92;22.38;;;;;;;12.94;51.00;101852.31;5080578;28;20066;-56
2022/03/28 03:13:01;;;;;;;42.30;20.90;;;;;;;12.85;51.27;101846.66;5097374;28;20048;-62
2022/03/28 03:15:28;;;;;;;36.05;20.48;;;;;;;12.68;51.97;101838.09;5078372;28;20052;-62
2022/03/28 03:17:55;;;;;;;34.55;20.48;;;;;;;12.73;52.09;101842.72;5078074;28;20060;-62
2022/03/28 03:20:23;;;;;;;32.95;21.30;;;;;;;12.74;52.14;101836.06;5077652;28;20389;-62
2022/03/28 03:22:50;;;;;;;35.35;20.13;;;;;;;12.75;51.78;101837.72;5078189;28;20499;-59
2022/03/28 03:25:18;;;;;;;37.70;19.80;;;;;;;12.83;51.68;101837.84;5078125;28;20062;-59
2022/03/28 03:27:51;;;;;;;41.28;20.65;;;;;;;12.73;52.32;101835.25;5076437;28;20048;-57
2022/03/28 03:30:20;;;;;;;36.80;20.95;;;;;;;12.68;52.66;101835.34;5077574;28;20059;-55
2022/03/28 03:32:48;;;;;;;38.03;20.85;;;;;;;12.72;52.52;101838.31;5077826;28;20048;-56
2022/03/28 03:35:15;;;;;;;38.67;21.35;;;;;;;12.76;52.76;101833.84;5077581;28;20053;-59
2022/03/28 03:37:42;;;;;;;36.38;20.63;;;;;;;12.65;52.93;101838.69;5077898;28;20044;-58
2022/03/28 03:40:12;;;;;;;40.17;21.00;;;;;;;12.70;53.17;101838.63;5077554;28;20049;-55
2022/03/28 03:42:39;;;;;;;36.40;20.02;;;;;;;12.72;52.97;101830.84;5094506;28;20059;-56
2022/03/28 03:45:08;;;;;;;40.88;22.20;;;;;;;12.63;53.34;101832.66;5097392;28;20064;-60
2022/03/28 03:47:36;;;;;;;38.00;21.00;;;;;;;12.62;53.46;101839.31;5096887;28;20143;-63
2022/03/28 03:50:05;;;;;;;40.85;20.98;;;;;;;12.57;53.79;101833.03;5078038;28;20071;-62
2022/03/28 03:52:32;;;;;;;37.65;21.00;;;;;;;12.57;53.96;101833.84;5094946;28;20052;-62
2022/03/28 03:54:59;;;;;;;36.15;21.30;;;;;;;12.59;53.83;101825.28;5096844;28;20399;-62
2022/03/28 03:57:27;;;;;;;39.78;21.35;;;;;;;12.63;53.74;101831.81;5096586;28;20048;-62
2022/03/28 03:59:55;;;;;;;41.58;20.83;;;;;;;12.44;54.62;101829.91;5077912;28;20507;-63
2022/03/28 04:02:38;;;;;;;35.10;20.95;;;;;;;12.59;54.22;101826.06;5095578;28;20048;-63
2022/03/28 04:05:06;;;;;;;39.13;21.85;;;;;;;12.58;54.49;101835.50;5095516;28;20419;-66
2022/03/28 04:07:34;;;;;;;42.75;22.90;;;;;;;12.55;54.71;101822.28;5077636;28;20067;-63
2022/03/28 04:10:02;;;;;;;39.03;22.08;;;;;;;12.55;54.83;101821.44;5096285;28;20052;-62
2022/03/28 04:12:30;;;;;;;40.80;22.05;;;;;;;12.39;55.22;101821.69;5095189;28;20399;-61
2022/03/28 04:14:59;;;;;;;39.72;21.85;;;;;;;12.36;55.58;101827.78;5080560;28;20063;-63
2022/03/28 04:17:28;;;;;;;35.23;21.87;;;;;;;12.39;55.51;101831.91;5074714;28;20071;-61
2022/03/28 04:19:57;;;;;;;42.58;24.08;;;;;;;12.19;56.17;101837.72;5075585;28;20049;-62
2022/03/28 04:22:24;;;;;;;41.63;22.52;;;;;;;12.22;56.38;101835.16;5074801;28;20051;-63
2022/03/28 04:24:52;;;;;;;39.75;22.35;;;;;;;12.10;56.84;101834.78;5076126;28;20055;-62
2022/03/28 04:27:20;;;;;;;36.80;21.80;;;;;;;12.14;56.92;101829.50;5076011;28;20056;-63
2022/03/28 04:29:47;;;;;;;43.42;22.58;;;;;;;12.34;56.26;101843.03;5075652;28;20055;-63
2022/03/28 04:32:14;;;;;;;39.88;22.55;;;;;;;12.25;56.67;101829.06;5075512;28;20059;-62
2022/03/28 04:34:42;;;;;;;46.60;22.95;;;;;;;12.15;57.22;101828.38;5075540;28;20412;-62
2022/03/28 04:37:09;;;;;;;40.58;22.38;;;;;;;12.24;56.98;101835.69;5075899;28;20131;-62
2022/03/28 04:39:36;;;;;;;35.83;21.83;;;;;;;12.25;56.94;101834.59;5075563;28;20051;-63
2022/03/28 04:42:04;;;;;;;37.30;22.33;;;;;;;12.20;57.18;101831.88;5087124;28;20503;-61
2022/03/28 04:44:31;;;;;;;44.08;23.48;;;;;;;12.31;57.03;101835.31;5055328;28;1156489;-62
2022/03/28 04:46:58;;;;;;;43.20;22.70;;;;;;;12.09;57.69;101826.81;5095761;28;20048;-62
2022/03/28 04:49:26;;;;;;;43.17;23.40;;;;;;;11.92;58.43;101823.72;5095147;28;20051;-62
2022/03/28 04:51:53;;;;;;;41.47;23.58;;;;;;;12.01;58.32;101831.03;5096782;28;20047;-63
2022/03/28 04:54:20;;;;;;;39.90;22.02;;;;;;;12.17;58.01;101820.59;5096273;28;20043;-62
2022/03/28 04:56:47;;;;;;;41.28;23.52;;;;;;;12.11;58.22;101822.63;5096492;28;20059;-62
2022/03/28 04:59:15;;;;;;;40.97;22.88;;;;;;;12.20;57.90;101822.78;5095048;28;20052;-62
2022/03/28 05:01:42;;;;;;;43.30;24.30;;;;;;;12.21;58.15;101822.50;5096262;28;20044;-64
2022/03/28 05:04:09;;;;;;;38.60;22.85;;;;;;;11.91;58.96;101813.78;5094145;28;20821;-61
2022/03/28 05:06:37;;;;;;;42.35;24.05;;;;;;;12.07;58.70;101815.22;5096586;28;20118;-62
2022/03/28 05:09:04;;;;;;;41.92;25.23;;;;;;;12.15;58.40;101809.06;5095362;28;20052;-63
2022/03/28 05:11:32;;;;;;;42.45;24.10;;;;;;;12.03;58.86;101809.47;5095059;28;20052;-63
2022/03/28 05:14:00;;;;;;;39.25;23.63;;;;;;;12.00;59.23;101812.84;5088379;28;20056;-63
2022/03/28 05:16:30;;;;;;;37.55;22.88;;;;;;;11.96;59.55;101810.97;5076178;28;20055;-63
2022/03/28 05:18:57;;;;;;;45.97;24.58;;;;;;;12.00;59.26;101807.31;5075665;28;20055;-63
2022/03/28 05:21:25;;;;;;;47.10;24.27;;;;;;;12.15;58.93;101814.59;5075611;28;20049;-62
2022/03/28 05:23:52;;;;;;;40.60;24.33;;;;;;;12.10;59.05;101809.13;5075853;28;20044;-62
2022/03/28 05:26:19;;;;;;;48.53;25.20;;;;;;;11.86;59.84;101813.84;5076066;28;20415;-68
2022/03/28 05:28:47;;;;;;;50.58;25.33;;;;;;;12.02;59.57;101809.78;5075755;28;20518;-63
2022/03/28 05:31:14;;;;;;;47.17;25.00;;;;;;;11.83;60.14;101814.44;5074456;28;20127;-61
2022/03/28 05:33:41;;;;;;;54.95;24.60;;;;;;;11.92;60.16;101813.50;5075505;28;20048;-62
2022/03/28 05:36:09;;;;;;;43.53;24.95;;;;;;;12.19;59.38;101810.91;5075350;28;20056;-63
2022/03/28 05:38:37;;;;;;;43.53;24.42;;;;;;;12.33;58.85;101817.34;5075589;28;20059;-62
2022/03/28 05:41:05;;;;;;;44.20;23.85;;;;;;;12.42;58.41;101821.09;5078542;28;20040;-63
2022/03/28 05:43:34;;;;;;;44.75;25.58;;;;;;;12.48;58.96;101818.25;5095761;28;20044;-64
2022/03/28 05:46:03;;;;;;;48.08;24.13;;;;;;;12.16;59.68;101814.28;5095514;28;20067;-63
2022/03/28 05:48:30;;;;;;;45.20;24.88;;;;;;;12.18;59.53;101814.81;5095687;28;20474;-63
2022/03/28 05:50:57;;;;;;;47.90;25.33;;;;;;;12.25;59.65;101809.75;5095276;28;20056;-63
2022/03/28 05:53:25;;;;;;;49.17;24.08;;;;;;;12.18;59.88;101817.56;5095596;28;20051;-61
2022/03/28 05:55:52;;;;;;;50.95;25.00;;;;;;;12.30;59.76;101811.59;5095476;28;20430;-62
2022/03/28 05:58:19;;;;;;;49.45;25.33;;;;;;;12.32;59.73;101812.94;5095515;28;20052;-63
2022/03/28 06:00:46;;;;;;;50.97;26.48;;;;;;;12.29;59.73;101810.75;5093803;28;20048;-62
2022/03/28 06:03:18;;;;;;;56.15;25.73;;;;;;;12.23;59.97;101813.91;5095369;28;20043;-63
2022/03/28 06:06:08;;;;;;;54.58;26.17;;;;;;;12.33;60.01;101811.00;5095423;28;20044;-63
2022/03/28 06:08:36;;;;;;;42.80;25.75;;;;;;;12.42;59.61;101807.28;5095427;28;20063;-61
2022/03/28 06:11:03;;;;;;;54.10;31.35;;;;;;;12.29;60.14;101802.47;5095171;28;20055;-63
2022/03/28 06:13:31;;;;;;;59.20;33.83;;;;;;;12.45;59.59;101808.59;5091258;28;20495;-61
2022/03/28 06:15:59;;;;;;;63.88;31.80;;;;;;;12.56;59.58;101806.50;5057184;28;20075;-63
2022/03/28 06:18:27;;;;;;;54.35;26.92;;;;;;;12.40;59.85;101805.91;5057320;28;20056;-62
2022/03/28 06:20:54;;;;;;;49.63;27.25;;;;;;;12.43;60.12;101805.31;5074612;28;20059;-63
2022/03/28 06:23:21;;;;;;;52.58;26.60;;;;;;;12.43;60.15;101799.78;5074537;28;20060;-62
2022/03/28 06:25:49;;;;;;;58.75;27.50;;;;;;;12.39;60.14;101799.59;5074971;28;20068;-64
2022/03/28 06:28:17;;;;;;;54.40;27.27;;;;;;;12.41;60.26;101804.81;5073710;28;20048;-63
2022/03/28 06:30:44;;;;;;;60.72;27.70;;;;;;;12.58;59.91;101796.81;5074786;28;20495;-62
2022/03/28 06:33:12;;;;;;;55.03;26.48;;;;;;;12.52;60.13;101802.72;5074764;28;20052;-62
2022/03/28 06:35:40;;;;;;;55.83;27.60;;;;;;;12.53;60.05;101805.19;5074141;28;20075;-63
2022/03/28 06:38:08;;;;;;;54.67;27.58;;;;;;;12.55;60.03;101797.41;5074688;28;20048;-61
2022/03/28 06:40:35;;;;;;;53.30;27.42;;;;;;;12.78;59.57;101799.22;5056481;28;20428;-62
2022/03/28 06:43:03;;;;;;;58.47;28.08;;;;;;;12.66;59.67;101806.38;5093654;28;20395;-61
2022/03/28 06:45:31;;;;;;;53.50;29.65;;;;;;;12.70;59.78;101801.84;5094222;28;20048;-63
2022/03/28 06:47:58;;;;;;;50.60;28.63;;;;;;;12.70;59.98;101799.09;5093429;28;20063;-62
2022/03/28 06:50:46;;;;;;;54.40;28.75;;;;;;;12.76;59.76;101797.91;5094684;28;20059;-63
2022/03/28 06:53:13;;;;;;;53.90;27.73;;;;;;;12.86;59.30;101790.25;5092890;28;20048;-64
2022/03/28 06:55:40;;;;;;;58.10;29.65;;;;;;;12.97;59.09;101794.47;5095100;28;20063;-62
2022/03/28 06:58:08;;;;;;;68.45;30.60;;;;;;;12.78;59.77;101790.94;5094894;28;20055;-63
2022/03/28 07:00:36;;;;;;;60.97;29.00;;;;;;;12.84;59.67;101800.78;5076919;28;20044;-66
2022/03/28 07:03:07;;;;;;;59.67;30.40;;;;;;;12.82;59.72;101791.97;5093411;28;20056;-63
2022/03/28 07:05:35;;;;;;;61.17;29.73;;;;;;;12.89;59.81;101786.88;5092917;28;20044;-64
2022/03/28 07:08:02;;;;;;;54.80;29.60;;;;;;;12.86;60.00;101790.25;5094736;28;20067;-63
2022/03/28 07:10:30;;;;;;;57.58;29.00;;;;;;;12.90;60.04;101788.50;5094502;28;20056;-63
2022/03/28 07:13:00;;;;;;;86.90;47.13;;;;;;;12.91;59.86;101790.16;5093650;28;20048;-65
2022/03/28 07:15:28;;;;;;;85.05;47.20;;;;;;;12.79;60.13;101781.53;5074703;28;20048;-64
2022/03/28 07:18:02;;;;;;;62.55;32.20;;;;;;;12.97;59.92;101783.41;5074266;28;20055;-63
2022/03/28 07:20:34;;;;;;;64.82;31.38;;;;;;;12.98;59.79;101779.53;5072885;28;20048;-63
2022/03/28 07:23:02;;;;;;;61.22;30.63;;;;;;;13.03;59.85;101784.16;5073112;28;20048;-63
2022/03/28 07:25:29;;;;;;;56.92;30.90;;;;;;;13.13;59.43;101789.50;5074412;28;20048;-64
2022/03/28 07:27:57;;;;;;;58.17;30.77;;;;;;;13.17;59.53;101791.38;5077502;28;20051;-65
2022/03/28 07:30:27;;;;;;;64.50;30.75;;;;;;;13.16;59.67;101780.63;5077722;28;20079;-63
2022/03/28 07:32:55;;;;;;;58.08;32.35;;;;;;;13.12;59.92;101780.41;5078041;28;20048;-62
2022/03/28 07:35:22;;;;;;;65.15;31.33;;;;;;;13.25;59.36;101785.13;5077530;28;20044;-61
2022/03/28 07:37:50;;;;;;;63.53;32.85;;;;;;;13.21;59.85;101781.34;5076130;28;20056;-61
2022/03/28 07:40:17;;;;;;;72.07;32.13;;;;;;;13.19;60.00;101772.53;5077738;28;20056;-63
2022/03/28 07:42:46;;;;;;;65.28;32.88;;;;;;;13.38;59.35;101776.03;5096362;28;20135;-62
2022/03/28 07:45:14;;;;;;;70.72;34.92;;;;;;;13.19;60.64;101778.06;5079746;28;20055;-61
2022/03/28 07:47:42;;;;;;;78.07;34.22;;;;;;;13.38;60.00;101773.28;5079506;28;20094;-56
2022/03/28 07:50:11;;;;;;;69.07;34.22;;;;;;;13.52;59.51;101774.09;5097472;28;20067;-57
2022/03/28 07:52:39;;;;;;;65.35;34.92;;;;;;;13.60;59.79;101769.78;5097582;28;20052;-56
2022/03/28 07:55:08;;;;;;;66.22;34.65;;;;;;;13.59;59.81;101765.38;5097746;28;20048;-58
2022/03/28 07:57:36;;;;;;;70.00;35.92;;;;;;;13.53;60.13;101780.44;5097369;28;20074;-58
2022/03/28 08:00:11;;;;;;;71.30;34.83;;;;;;;13.56;60.11;101775.09;5097646;28;20062;-58
2022/03/28 08:02:55;;;;;;;76.47;37.53;;;;;;;13.78;59.84;101776.34;5096951;28;20059;-58
2022/03/28 08:05:24;;;;;;;68.13;35.92;;;;;;;13.83;59.93;101768.75;5097405;28;20047;-58
2022/03/28 08:07:52;;;;;;;67.90;36.83;;;;;;;13.90;59.53;101763.59;5095924;28;20052;-58
2022/03/28 08:10:20;;;;;;;77.80;36.72;;;;;;;13.85;60.12;101766.50;5097662;28;20056;-60
2022/03/28 08:12:49;;;;;;;68.60;36.38;;;;;;;13.87;60.08;101763.41;5097202;28;20048;-60
2022/03/28 08:15:17;;;;;;;69.63;37.60;;;;;;;13.86;60.26;101767.31;5077615;28;20520;-60
2022/03/28 08:17:45;;;;;;;72.72;37.72;;;;;;;13.89;60.27;101764.75;5077036;28;20056;-59
2022/03/28 08:20:13;;;;;;;74.35;39.78;;;;;;;14.05;60.38;101765.22;5076851;28;20075;-58
2022/03/28 08:22:49;;;;;;;73.57;38.88;;;;;;;14.25;59.64;101765.59;5075611;28;20053;-58
2022/03/28 08:25:18;;;;;;;70.97;38.35;;;;;;;14.48;59.32;101758.97;5077144;28;20048;-58
2022/03/28 08:27:46;;;;;;;79.20;39.95;;;;;;;14.02;60.89;101768.59;5076877;28;20044;-59
2022/03/28 08:30:13;;;;;;;71.47;37.60;;;;;;;14.56;59.79;101762.91;5076674;28;20130;-58
2022/03/28 08:32:41;;;;;;;74.47;40.47;;;;;;;14.58;59.30;101757.88;5076709;28;20048;-59
2022/03/28 08:35:10;;;;;;;76.18;40.08;;;;;;;14.58;59.38;101755.13;5076595;28;20053;-59
2022/03/28 08:37:38;;;;;;;78.53;41.58;;;;;;;14.54;59.47;101754.91;5075859;28;20068;-57
2022/03/28 08:40:13;;;;;;;76.40;39.30;;;;;;;14.54;59.79;101754.91;5076694;28;20056;-57
2022/03/28 08:42:41;;;;;;;75.57;41.33;;;;;;;14.81;58.62;101745.66;5093145;28;20044;-57
2022/03/28 08:45:11;;;;;;;87.80;41.53;;;;;;;14.28;60.87;101744.75;5078558;28;20058;-53
2022/03/28 08:47:40;;;;;;;;;;;;;;;14.75;59.92;101741.34;5097215;28;20055;-56
2022/03/28 08:50:28;;;;;;;87.43;39.03;;;;;;;15.09;58.61;101735.19;5096652;28;19938;-57
2022/03/28 08:52:55;;;;;;;74.55;39.58;;;;;;;15.25;57.63;101739.19;5094590;28;20048;-59
2022/03/28 08:55:23;;;;;;;77.85;40.63;;;;;;;15.40;56.82;101741.56;5096159;28;20060;-56
2022/03/28 08:57:50;;;;;;;71.63;39.28;;;;;;;15.49;56.47;101740.47;5094883;28;20052;-60
2022/03/28 09:00:17;;;;;;;81.95;42.22;;;;;;;15.78;55.65;101739.91;5096581;28;20059;-60
2022/03/28 09:02:47;;;;;;;73.25;40.20;;;;;;;15.39;55.98;101732.41;5094502;28;20060;-59
2022/03/28 09:05:17;;;;;;;68.30;39.83;;;;;;;15.60;55.26;101727.91;5096428;28;20399;-56
2022/03/28 09:07:46;;;;;;;83.55;40.78;;;;;;;15.13;56.57;101738.97;5096048;28;20059;-60
2022/03/28 09:10:17;;;;;;;80.20;40.85;;;;;;;15.34;56.34;101740.06;5096304;28;20484;-58
2022/03/28 09:13:03;;;;;;;70.82;40.20;;;;;;;15.63;54.90;101737.56;5095953;28;20093;-60
2022/03/28 09:15:55;;;;;;;82.03;40.25;;;;;;;15.70;54.55;101741.53;5055842;28;20048;-58
2022/03/28 09:18:26;;;;;;;72.80;40.55;;;;;;;15.72;54.12;101738.44;5055804;28;20053;-58
2022/03/28 09:20:57;;;;;;;75.03;38.65;;;;;;;15.90;53.28;101728.97;5054805;28;20049;-59
2022/03/28 09:23:35;;;;;;;74.90;39.70;;;;;;;15.79;53.74;101736.78;5055701;28;20076;-56
2022/03/28 09:26:16;;;;;;;74.70;38.72;;;;;;;15.94;53.46;101729.97;5056216;28;20045;-59
2022/03/28 09:28:53;;;;;;;73.97;38.85;;;;;;;16.25;52.18;101733.41;5060321;28;20041;-59
2022/03/28 09:31:23;;;;;;;77.38;41.13;;;;;;;16.43;51.79;101731.44;5075716;28;20044;-59
2022/03/28 09:33:57;;;;;;;86.77;40.97;;;;;;;16.00;52.09;101733.41;5075314;28;20053;-58
2022/03/28 09:36:44;;;;;;;79.95;40.63;;;;;;;16.44;51.47;101721.97;5075525;28;20501;-60
2022/03/28 09:39:17;;;;;;;80.70;39.30;;;;;;;16.53;50.70;101726.41;5075598;28;20051;-56
2022/03/28 09:42:03;;;;;;;77.30;40.78;;;;;;;16.69;50.32;101721.97;5085535;28;20048;-59
2022/03/28 09:44:48;;;;;;;73.95;39.50;;;;;;;16.89;49.99;101717.69;5095742;28;20075;-65
2022/03/28 09:47:17;;;;;;;71.80;37.97;;;;;;;16.76;49.60;101715.91;5095808;28;20055;-58
2022/03/28 09:49:45;;;;;;;75.93;40.17;;;;;;;16.51;49.83;101716.78;5093353;28;20067;-60
2022/03/28 09:52:16;;;;;;;76.15;39.42;;;;;;;16.66;49.88;101711.50;5095449;28;20059;-59
2022/03/28 09:54:52;;;;;;;73.30;40.88;;;;;;;16.64;48.91;101704.63;5095679;28;20048;-56
2022/03/28 09:57:31;;;;;;;71.38;38.72;;;;;;;16.97;47.62;101704.88;5095646;28;20059;-56
2022/03/28 10:00:15;;;;;;;77.22;38.35;;;;;;;17.08;47.40;101697.81;5095601;28;20056;-62
2022/03/28 10:02:43;;;;;;;68.32;37.33;;;;;;;17.11;46.90;101708.25;5095274;28;20052;-57
2022/03/28 10:05:11;;;;;;;68.40;36.47;;;;;;;17.03;46.35;101706.34;5095381;28;20055;-58
2022/03/28 10:07:38;;;;;;;69.90;37.88;;;;;;;17.01;46.40;101700.28;5094031;28;20431;-60
2022/03/28 10:10:06;;;;;;;67.38;36.67;;;;;;;17.28;46.03;101689.53;5076857;28;20052;-58
2022/03/28 10:12:34;;;;;;;67.82;37.90;;;;;;;17.24;45.94;101690.53;5093954;28;20044;-58
2022/03/28 10:15:02;;;;;;;74.20;37.63;;;;;;;17.50;45.40;101686.50;5077729;28;20511;-59
2022/03/28 10:17:31;;;;;;;63.80;36.53;;;;;;;17.76;44.41;101676.00;5073941;28;20052;-59
2022/03/28 10:19:59;;;;;;;77.18;38.35;;;;;;;18.15;43.64;101676.69;5057114;28;20053;-60
2022/03/28 10:22:41;;;;;;;70.43;35.38;;;;;;;17.52;43.51;101677.81;5074868;28;20052;-59
2022/03/28 10:25:10;;;;;;;69.05;34.10;;;;;;;17.54;43.39;101673.50;5073287;28;20064;-61
2022/03/28 10:27:37;;;;;;;70.88;34.60;;;;;;;17.58;42.92;101663.34;5057295;28;20048;-64
2022/03/28 10:30:27;;;;;;;66.50;33.63;;;;;;;17.71;41.93;101670.63;5074745;28;20052;-58
2022/03/28 10:33:16;;;;;;;57.25;32.13;;;;;;;17.66;41.27;101656.09;5074788;28;20056;-59
2022/03/28 10:36:17;;;;;;;63.85;29.63;;;;;;;17.77;40.05;101646.16;5074564;28;20055;-59
2022/03/28 10:38:44;;;;;;;63.17;32.25;;;;;;;18.13;40.08;101637.19;5073631;28;20435;-57
2022/03/28 10:41:16;;;;;;;63.15;31.08;;;;;;;18.17;39.05;101630.56;5080394;28;20079;-60
2022/03/28 10:43:44;;;;;;;52.88;26.98;;;;;;;18.42;38.60;101634.28;5059667;28;20406;-60
2022/03/28 10:46:12;;;;;;;48.63;25.83;;;;;;;18.24;37.50;101635.59;5093641;28;20048;-60
2022/03/28 10:48:58;;;;;;;55.05;27.98;;;;;;;18.44;36.99;101624.44;5094773;28;20044;-59
2022/03/28 10:51:31;;;;;;;52.38;25.95;;;;;;;18.60;35.68;101628.19;5095204;28;20071;-61
2022/03/28 10:54:05;;;;;;;43.78;25.25;;;;;;;18.37;35.73;101617.75;5094092;28;20059;-60
2022/03/28 10:56:34;;;;;;;48.17;24.33;;;;;;;18.69;35.25;101617.72;5093668;28;20051;-61
2022/03/28 10:59:09;;;;;;;43.85;23.95;;;;;;;18.80;34.42;101618.94;5095098;28;20384;-57
2022/03/28 11:01:39;;;;;;;47.55;25.17;;;;;;;18.60;34.56;101602.28;5096259;28;20048;-57
2022/03/28 11:04:19;;;;;;;47.58;22.52;;;;;;;18.64;34.34;101603.19;5080309;28;20072;-60
2022/03/28 11:07:06;;;;;;;52.00;24.83;;;;;;;18.84;34.40;101600.34;5097480;28;20055;-59
2022/03/28 11:09:43;;;;;;;53.33;25.10;;;;;;;18.60;34.42;101591.91;5096954;28;20137;-60
2022/03/28 11:12:16;;;;;;;42.03;25.08;;;;;;;18.61;34.00;101587.13;5098215;28;20052;-59
2022/03/28 11:14:50;;;;;;;47.15;24.48;;;;;;;18.55;33.99;101577.38;5066017;28;20500;-55
2022/03/28 11:17:23;;;;;;;42.63;23.00;;;;;;;18.90;33.08;101581.34;5076676;28;20053;-61
2022/03/28 11:20:06;;;;;;;42.03;22.95;;;;;;;19.28;32.22;101583.78;5078066;28;20051;-59